sensor_id;sensor_type;location;lat;lon;timestamp;pressure;altitude;pressure_sealevel;temperature;humidity
18988;BME280;5494;51.796;10.952;2023-08-06T00:00:28;98236.31;;;15.30;100.00
18988;BME280;5494;51.796;10.952;2023-08-06T00:02:56;98236.53;;;15.38;100.00
18988;BME280;5494;51.796;10.952;2023-08-06T00:05:25;98234.94;;;15.26;100.00
18988;BME280;5494;51.796;10.952;2023-08-06T00:07:54;98229.03;;;15.02;100.00
18988;BME280;5494;51.796;10.952;2023-08-06T00:10:22;98230.66;;;14.93;100.00
18988;BME280;5494;51.796;10.952;2023-08-06T00:12:50;98225.47;;;15.03;100.00
18988;BME280;5494;51.796;10.952;2023-08-06T00:15:18;98215.72;;;15.05;100.00
18988;BME280;5494;51.796;10.952;2023-08-06T00:17:46;98210.72;;;15.02;100.00
18988;BME280;5494;51.796;10.952;2023-08-06T00:20:14;98208.31;;;15.10;100.00
18988;BME280;5494;51.796;10.952;2023-08-06T00:22:43;98207.56;;;15.19;100.00
18988;BME280;5494;51.796;10.952;2023-08-06T00:25:11;98203.50;;;15.26;100.00
18988;BME280;5494;51.796;10.952;2023-08-06T00:27:42;98196.28;;;15.39;100.00
18988;BME280;5494;51.796;10.952;2023-08-06T00:30:11;98194.03;;;15.14;100.00
18988;BME280;5494;51.796;10.952;2023-08-06T00:32:39;98190.72;;;15.12;100.00
18988;BME280;5494;51.796;10.952;2023-08-06T00:35:07;98191.44;;;15.14;100.00
18988;BME280;5494;51.796;10.952;2023-08-06T00:37:36;98183.81;;;15.11;100.00
18988;BME280;5494;51.796;10.952;2023-08-06T00:40:07;98177.09;;;14.97;100.00
18988;BME280;5494;51.796;10.952;2023-08-06T00:42:35;98179.81;;;14.95;100.00
18988;BME280;5494;51.796;10.952;2023-08-06T00:45:04;98171.00;;;14.96;100.00
18988;BME280;5494;51.796;10.952;2023-08-06T00:47:32;98176.25;;;14.96;100.00
18988;BME280;5494;51.796;10.952;2023-08-06T00:50:02;98170.91;;;14.98;100.00
18988;BME280;5494;51.796;10.952;2023-08-06T00:52:30;98159.38;;;14.89;100.00
18988;BME280;5494;51.796;10.952;2023-08-06T00:54:59;98156.75;;;14.89;100.00
18988;BME280;5494;51.796;10.952;2023-08-06T00:57:30;98161.44;;;14.86;100.00
18988;BME280;5494;51.796;10.952;2023-08-06T00:59:58;98151.41;;;14.91;100.00
18988;BME280;5494;51.796;10.952;2023-08-06T01:02:26;98149.50;;;14.93;100.00
18988;BME280;5494;51.796;10.952;2023-08-06T01:04:54;98143.69;;;14.89;100.00
18988;BME280;5494;51.796;10.952;2023-08-06T01:07:40;98144.06;;;14.85;100.00
18988;BME280;5494;51.796;10.952;2023-08-06T01:10:28;98139.19;;;14.80;100.00
18988;BME280;5494;51.796;10.952;2023-08-06T01:13:16;98136.22;;;14.85;100.00
18988;BME280;5494;51.796;10.952;2023-08-06T01:15:50;98128.72;;;14.80;100.00
18988;BME280;5494;51.796;10.952;2023-08-06T01:18:23;98121.56;;;14.93;100.00
18988;BME280;5494;51.796;10.952;2023-08-06T01:20:52;98116.31;;;14.93;100.00
18988;BME280;5494;51.796;10.952;2023-08-06T01:23:21;98126.19;;;14.90;100.00
18988;BME280;5494;51.796;10.952;2023-08-06T01:26:00;98124.41;;;14.90;100.00
18988;BME280;5494;51.796;10.952;2023-08-06T01:28:42;98126.06;;;14.91;100.00
18988;BME280;5494;51.796;10.952;2023-08-06T01:31:20;98117.84;;;14.96;100.00
18988;BME280;5494;51.796;10.952;2023-08-06T01:33:51;98110.16;;;14.83;100.00
18988;BME280;5494;51.796;10.952;2023-08-06T01:36:23;98114.16;;;14.98;100.00
18988;BME280;5494;51.796;10.952;2023-08-06T01:38:52;98107.47;;;14.94;100.00
18988;BME280;5494;51.796;10.952;2023-08-06T01:41:20;98099.28;;;14.99;100.00
18988;BME280;5494;51.796;10.952;2023-08-06T01:43:49;98094.88;;;15.00;100.00
18988;BME280;5494;51.796;10.952;2023-08-06T01:46:17;98087.06;;;14.88;100.00
18988;BME280;5494;51.796;10.952;2023-08-06T01:48:45;98079.91;;;14.90;100.00
18988;BME280;5494;51.796;10.952;2023-08-06T01:51:13;98076.03;;;14.85;100.00
18988;BME280;5494;51.796;10.952;2023-08-06T01:53:43;98079.72;;;14.82;100.00
18988;BME280;5494;51.796;10.952;2023-08-06T01:56:11;98074.47;;;14.82;100.00
18988;BME280;5494;51.796;10.952;2023-08-06T01:58:39;98069.25;;;14.82;100.00
18988;BME280;5494;51.796;10.952;2023-08-06T02:01:08;98070.09;;;14.83;100.00
18988;BME280;5494;51.796;10.952;2023-08-06T02:03:36;98072.13;;;14.79;100.00
18988;BME280;5494;51.796;10.952;2023-08-06T02:06:04;98068.38;;;14.72;100.00
18988;BME280;5494;51.796;10.952;2023-08-06T02:08:33;98059.91;;;14.69;100.00
18988;BME280;5494;51.796;10.952;2023-08-06T02:11:02;98058.44;;;14.55;100.00
18988;BME280;5494;51.796;10.952;2023-08-06T02:13:30;98058.09;;;14.48;100.00
18988;BME280;5494;51.796;10.952;2023-08-06T02:15:58;98058.09;;;14.48;100.00
18988;BME280;5494;51.796;10.952;2023-08-06T02:18:27;98049.44;;;14.48;100.00
18988;BME280;5494;51.796;10.952;2023-08-06T02:20:56;98057.06;;;14.72;100.00
18988;BME280;5494;51.796;10.952;2023-08-06T02:23:26;98045.66;;;14.93;100.00
18988;BME280;5494;51.796;10.952;2023-08-06T02:25:58;98037.28;;;14.79;100.00
18988;BME280;5494;51.796;10.952;2023-08-06T02:28:29;98034.16;;;14.85;100.00
18988;BME280;5494;51.796;10.952;2023-08-06T02:30:57;98026.31;;;14.85;100.00
18988;BME280;5494;51.796;10.952;2023-08-06T02:33:25;98022.53;;;14.78;100.00
18988;BME280;5494;51.796;10.952;2023-08-06T02:36:02;98026.22;;;14.75;100.00
18988;BME280;5494;51.796;10.952;2023-08-06T02:38:31;98028.41;;;14.70;100.00
18988;BME280;5494;51.796;10.952;2023-08-06T02:41:03;98026.50;;;14.72;100.00
18988;BME280;5494;51.796;10.952;2023-08-06T02:43:32;98019.22;;;14.76;100.00
18988;BME280;5494;51.796;10.952;2023-08-06T02:46:01;98013.03;;;14.77;100.00
18988;BME280;5494;51.796;10.952;2023-08-06T02:48:29;98009.16;;;14.71;100.00
18988;BME280;5494;51.796;10.952;2023-08-06T02:50:58;98009.19;;;14.81;100.00
18988;BME280;5494;51.796;10.952;2023-08-06T02:53:29;98010.09;;;14.70;100.00
18988;BME280;5494;51.796;10.952;2023-08-06T02:56:01;98014.38;;;14.71;100.00
18988;BME280;5494;51.796;10.952;2023-08-06T02:58:41;98006.97;;;14.76;100.00
18988;BME280;5494;51.796;10.952;2023-08-06T03:01:22;98001.50;;;14.79;100.00
18988;BME280;5494;51.796;10.952;2023-08-06T03:03:57;98003.63;;;14.74;100.00
18988;BME280;5494;51.796;10.952;2023-08-06T03:06:35;98003.31;;;14.88;100.00
18988;BME280;5494;51.796;10.952;2023-08-06T03:09:03;97999.56;;;14.81;100.00
18988;BME280;5494;51.796;10.952;2023-08-06T03:11:31;97996.56;;;14.65;100.00
18988;BME280;5494;51.796;10.952;2023-08-06T03:14:06;98001.59;;;14.57;100.00
18988;BME280;5494;51.796;10.952;2023-08-06T03:16:36;98003.44;;;14.66;100.00
18988;BME280;5494;51.796;10.952;2023-08-06T03:19:04;97998.88;;;14.58;100.00
18988;BME280;5494;51.796;10.952;2023-08-06T03:21:33;98003.50;;;14.55;100.00
18988;BME280;5494;51.796;10.952;2023-08-06T03:24:02;98001.94;;;14.64;100.00
18988;BME280;5494;51.796;10.952;2023-08-06T03:26:33;98007.47;;;14.70;100.00
18988;BME280;5494;51.796;10.952;2023-08-06T03:29:01;98006.84;;;14.57;100.00
18988;BME280;5494;51.796;10.952;2023-08-06T03:31:34;98008.00;;;14.64;100.00
18988;BME280;5494;51.796;10.952;2023-08-06T03:34:03;98012.50;;;14.62;100.00
18988;BME280;5494;51.796;10.952;2023-08-06T03:36:31;97997.78;;;14.61;100.00
18988;BME280;5494;51.796;10.952;2023-08-06T03:39:01;97986.78;;;14.67;100.00
18988;BME280;5494;51.796;10.952;2023-08-06T03:41:31;97987.31;;;14.61;100.00
18988;BME280;5494;51.796;10.952;2023-08-06T03:43:59;97983.03;;;14.60;100.00
18988;BME280;5494;51.796;10.952;2023-08-06T03:46:29;97983.19;;;14.58;100.00
18988;BME280;5494;51.796;10.952;2023-08-06T03:49:01;97993.31;;;14.52;100.00
18988;BME280;5494;51.796;10.952;2023-08-06T03:51:29;97994.31;;;14.61;100.00
18988;BME280;5494;51.796;10.952;2023-08-06T03:53:57;97996.00;;;14.62;100.00
18988;BME280;5494;51.796;10.952;2023-08-06T03:56:25;97992.53;;;14.61;100.00
18988;BME280;5494;51.796;10.952;2023-08-06T03:58:53;97988.97;;;14.62;100.00
18988;BME280;5494;51.796;10.952;2023-08-06T04:01:23;97984.13;;;14.78;100.00
18988;BME280;5494;51.796;10.952;2023-08-06T04:03:52;97980.38;;;14.71;100.00
18988;BME280;5494;51.796;10.952;2023-08-06T04:06:22;97985.41;;;14.63;100.00
18988;BME280;5494;51.796;10.952;2023-08-06T04:08:50;97983.19;;;14.58;100.00
18988;BME280;5494;51.796;10.952;2023-08-06T04:11:18;97987.91;;;14.65;100.00
18988;BME280;5494;51.796;10.952;2023-08-06T04:13:46;97982.59;;;14.76;100.00
18988;BME280;5494;51.796;10.952;2023-08-06T04:16:14;97974.66;;;14.66;100.00
18988;BME280;5494;51.796;10.952;2023-08-06T04:18:42;97978.00;;;14.68;100.00
18988;BME280;5494;51.796;10.952;2023-08-06T04:21:12;97974.53;;;14.68;100.00
18988;BME280;5494;51.796;10.952;2023-08-06T04:23:42;97966.69;;;14.68;100.00
18988;BME280;5494;51.796;10.952;2023-08-06T04:26:10;97974.31;;;14.71;100.00
18988;BME280;5494;51.796;10.952;2023-08-06T04:28:38;97970.41;;;14.65;100.00
18988;BME280;5494;51.796;10.952;2023-08-06T04:31:08;97978.44;;;14.73;100.00
18988;BME280;5494;51.796;10.952;2023-08-06T04:33:38;97974.22;;;14.82;100.00
18988;BME280;5494;51.796;10.952;2023-08-06T04:36:09;97971.41;;;14.94;100.00
18988;BME280;5494;51.796;10.952;2023-08-06T04:38:37;97973.38;;;14.81;100.00
18988;BME280;5494;51.796;10.952;2023-08-06T04:41:09;97974.44;;;14.69;100.00
18988;BME280;5494;51.796;10.952;2023-08-06T04:43:37;97970.09;;;14.58;100.00
18988;BME280;5494;51.796;10.952;2023-08-06T04:46:06;97981.72;;;14.66;100.00
18988;BME280;5494;51.796;10.952;2023-08-06T04:48:34;97979.41;;;14.72;100.00
18988;BME280;5494;51.796;10.952;2023-08-06T04:51:02;97974.50;;;14.79;100.00
18988;BME280;5494;51.796;10.952;2023-08-06T04:53:30;97963.66;;;14.63;100.00
18988;BME280;5494;51.796;10.952;2023-08-06T04:55:58;97958.00;;;14.67;100.00
18988;BME280;5494;51.796;10.952;2023-08-06T04:58:27;97960.50;;;14.69;100.00
18988;BME280;5494;51.796;10.952;2023-08-06T05:00:55;97955.06;;;14.81;100.00
18988;BME280;5494;51.796;10.952;2023-08-06T05:03:24;97954.09;;;15.03;100.00
18988;BME280;5494;51.796;10.952;2023-08-06T05:05:52;97955.16;;;15.01;100.00
18988;BME280;5494;51.796;10.952;2023-08-06T05:08:20;97957.66;;;15.02;100.00
18988;BME280;5494;51.796;10.952;2023-08-06T05:10:48;97958.13;;;15.07;100.00
18988;BME280;5494;51.796;10.952;2023-08-06T05:13:16;97958.13;;;15.07;100.00
18988;BME280;5494;51.796;10.952;2023-08-06T05:15:48;97963.66;;;15.14;100.00
18988;BME280;5494;51.796;10.952;2023-08-06T05:18:16;97947.97;;;15.23;100.00
18988;BME280;5494;51.796;10.952;2023-08-06T05:20:45;97952.13;;;15.26;100.00
18988;BME280;5494;51.796;10.952;2023-08-06T05:23:13;97948.03;;;15.33;100.00
18988;BME280;5494;51.796;10.952;2023-08-06T05:25:41;97943.91;;;15.40;100.00
18988;BME280;5494;51.796;10.952;2023-08-06T05:28:09;97938.69;;;15.50;100.00
18988;BME280;5494;51.796;10.952;2023-08-06T05:30:39;97944.00;;;15.59;100.00
18988;BME280;5494;51.796;10.952;2023-08-06T05:33:08;97947.06;;;15.74;100.00
18988;BME280;5494;51.796;10.952;2023-08-06T05:35:37;97935.19;;;15.80;100.00
18988;BME280;5494;51.796;10.952;2023-08-06T05:38:05;97938.78;;;15.79;100.00
18988;BME280;5494;51.796;10.952;2023-08-06T05:40:33;97939.31;;;15.72;100.00
18988;BME280;5494;51.796;10.952;2023-08-06T05:43:01;97932.16;;;15.74;100.00
18988;BME280;5494;51.796;10.952;2023-08-06T05:45:30;97938.38;;;15.93;100.00
18988;BME280;5494;51.796;10.952;2023-08-06T05:47:58;97927.34;;;16.18;100.00
18988;BME280;5494;51.796;10.952;2023-08-06T05:50:28;97929.69;;;16.21;100.00
18988;BME280;5494;51.796;10.952;2023-08-06T05:52:56;97930.09;;;16.36;100.00
18988;BME280;5494;51.796;10.952;2023-08-06T05:55:27;97934.78;;;16.42;100.00
18988;BME280;5494;51.796;10.952;2023-08-06T05:57:55;97938.38;;;16.41;100.00
18988;BME280;5494;51.796;10.952;2023-08-06T06:00:24;97935.34;;;16.26;100.00
18988;BME280;5494;51.796;10.952;2023-08-06T06:02:52;97939.50;;;16.09;100.00
18988;BME280;5494;51.796;10.952;2023-08-06T06:05:23;97931.22;;;15.95;100.00
18988;BME280;5494;51.796;10.952;2023-08-06T06:07:52;97931.22;;;16.14;100.00
18988;BME280;5494;51.796;10.952;2023-08-06T06:10:21;97922.50;;;16.42;100.00
18988;BME280;5494;51.796;10.952;2023-08-06T06:12:49;97926.91;;;16.61;100.00
18988;BME280;5494;51.796;10.952;2023-08-06T06:15:17;97915.69;;;16.78;100.00
18988;BME280;5494;51.796;10.952;2023-08-06T06:17:45;97915.69;;;17.15;100.00
18988;BME280;5494;51.796;10.952;2023-08-06T06:20:13;97914.81;;;17.24;100.00
18988;BME280;5494;51.796;10.952;2023-08-06T06:22:41;97915.16;;;17.66;100.00
18988;BME280;5494;51.796;10.952;2023-08-06T06:25:11;97905.06;;;17.89;100.00
18988;BME280;5494;51.796;10.952;2023-08-06T06:27:39;97904.34;;;18.05;100.00
18988;BME280;5494;51.796;10.952;2023-08-06T06:30:08;97902.03;;;18.20;100.00
18988;BME280;5494;51.796;10.952;2023-08-06T06:32:38;97896.50;;;18.48;100.00
18988;BME280;5494;51.796;10.952;2023-08-06T06:35:08;97905.56;;;18.54;100.00
18988;BME280;5494;51.796;10.952;2023-08-06T06:37:36;97899.16;;;18.74;100.00
18988;BME280;5494;51.796;10.952;2023-08-06T06:40:06;97902.38;;;18.86;99.38
18988;BME280;5494;51.796;10.952;2023-08-06T06:42:36;97905.84;;;18.86;100.00
18988;BME280;5494;51.796;10.952;2023-08-06T06:45:09;97903.41;;;18.93;100.00
18988;BME280;5494;51.796;10.952;2023-08-06T06:47:37;97904.75;;;19.39;97.08
18988;BME280;5494;51.796;10.952;2023-08-06T06:50:06;97901.97;;;19.41;93.09
18988;BME280;5494;51.796;10.952;2023-08-06T06:52:35;97904.50;;;19.58;91.63
18988;BME280;5494;51.796;10.952;2023-08-06T06:55:04;97906.56;;;19.89;90.69
18988;BME280;5494;51.796;10.952;2023-08-06T06:57:32;97902.56;;;19.85;86.94
18988;BME280;5494;51.796;10.952;2023-08-06T07:00:02;97887.31;;;20.45;86.58
18988;BME280;5494;51.796;10.952;2023-08-06T07:02:32;97897.66;;;20.79;79.18
18988;BME280;5494;51.796;10.952;2023-08-06T07:05:00;97894.59;;;21.23;76.33
18988;BME280;5494;51.796;10.952;2023-08-06T07:07:29;97895.16;;;20.94;78.46
18988;BME280;5494;51.796;10.952;2023-08-06T07:09:57;97893.50;;;21.40;74.99
18988;BME280;5494;51.796;10.952;2023-08-06T07:12:25;97897.25;;;21.23;73.75
18988;BME280;5494;51.796;10.952;2023-08-06T07:14:53;97896.81;;;21.42;71.50
18988;BME280;5494;51.796;10.952;2023-08-06T07:17:22;97884.28;;;21.67;72.17
18988;BME280;5494;51.796;10.952;2023-08-06T07:19:50;97893.41;;;21.64;72.56
18988;BME280;5494;51.796;10.952;2023-08-06T07:22:18;97890.97;;;21.54;74.38
18988;BME280;5494;51.796;10.952;2023-08-06T07:24:46;97886.59;;;21.70;69.25
18988;BME280;5494;51.796;10.952;2023-08-06T07:27:14;97882.13;;;21.93;67.54
18988;BME280;5494;51.796;10.952;2023-08-06T07:29:42;97887.25;;;21.94;67.82
18988;BME280;5494;51.796;10.952;2023-08-06T07:32:11;97885.94;;;22.36;67.82
18988;BME280;5494;51.796;10.952;2023-08-06T07:34:40;97886.66;;;22.67;66.58
18988;BME280;5494;51.796;10.952;2023-08-06T07:37:08;97878.34;;;23.44;59.76
18988;BME280;5494;51.796;10.952;2023-08-06T07:39:36;97877.09;;;23.76;57.20
18988;BME280;5494;51.796;10.952;2023-08-06T07:42:06;97874.47;;;24.18;57.05
18988;BME280;5494;51.796;10.952;2023-08-06T07:44:34;97879.47;;;24.28;56.42
18988;BME280;5494;51.796;10.952;2023-08-06T07:47:03;97875.78;;;24.78;54.36
18988;BME280;5494;51.796;10.952;2023-08-06T07:49:31;97877.38;;;25.00;54.14
18988;BME280;5494;51.796;10.952;2023-08-06T07:52:00;97878.72;;;25.24;50.28
18988;BME280;5494;51.796;10.952;2023-08-06T07:54:29;97888.66;;;25.02;50.42
18988;BME280;5494;51.796;10.952;2023-08-06T07:56:57;97879.41;;;24.98;51.10
18988;BME280;5494;51.796;10.952;2023-08-06T07:59:25;97877.78;;;25.45;48.53
18988;BME280;5494;51.796;10.952;2023-08-06T08:01:53;97874.41;;;25.17;49.22
18988;BME280;5494;51.796;10.952;2023-08-06T08:04:22;97882.72;;;25.48;48.40
18988;BME280;5494;51.796;10.952;2023-08-06T08:06:50;97871.03;;;26.10;46.79
18988;BME280;5494;51.796;10.952;2023-08-06T08:09:20;97874.56;;;26.30;47.17
18988;BME280;5494;51.796;10.952;2023-08-06T08:11:48;97856.09;;;26.28;50.59
18988;BME280;5494;51.796;10.952;2023-08-06T08:14:17;97875.16;;;25.52;54.20
18988;BME280;5494;51.796;10.952;2023-08-06T08:16:46;97864.91;;;25.48;50.24
18988;BME280;5494;51.796;10.952;2023-08-06T08:19:14;97865.81;;;25.69;50.87
18988;BME280;5494;51.796;10.952;2023-08-06T08:21:42;97861.06;;;25.10;52.30
18988;BME280;5494;51.796;10.952;2023-08-06T08:24:10;97862.25;;;24.73;56.82
18988;BME280;5494;51.796;10.952;2023-08-06T08:26:40;97855.66;;;24.69;50.70
18988;BME280;5494;51.796;10.952;2023-08-06T08:29:08;97861.88;;;24.83;49.93
18988;BME280;5494;51.796;10.952;2023-08-06T08:31:36;97861.56;;;23.94;54.07
18988;BME280;5494;51.796;10.952;2023-08-06T08:34:06;97865.06;;;23.59;51.48
18988;BME280;5494;51.796;10.952;2023-08-06T08:36:34;97860.63;;;24.02;51.55
18988;BME280;5494;51.796;10.952;2023-08-06T08:39:03;97857.63;;;24.54;49.89
18988;BME280;5494;51.796;10.952;2023-08-06T08:41:33;97857.25;;;24.36;50.03
18988;BME280;5494;51.796;10.952;2023-08-06T08:44:07;97858.91;;;24.15;50.56
18988;BME280;5494;51.796;10.952;2023-08-06T08:46:40;97851.47;;;24.81;42.49
18988;BME280;5494;51.796;10.952;2023-08-06T08:49:08;97852.78;;;24.64;43.53
18988;BME280;5494;51.796;10.952;2023-08-06T08:51:36;97853.78;;;24.63;44.93
18988;BME280;5494;51.796;10.952;2023-08-06T08:54:07;97845.69;;;24.78;44.82
18988;BME280;5494;51.796;10.952;2023-08-06T08:56:36;97848.09;;;24.66;42.79
18988;BME280;5494;51.796;10.952;2023-08-06T08:59:06;97849.38;;;24.49;43.73
18988;BME280;5494;51.796;10.952;2023-08-06T09:01:35;97846.75;;;24.83;45.02
18988;BME280;5494;51.796;10.952;2023-08-06T09:04:06;97840.84;;;25.76;43.37
18988;BME280;5494;51.796;10.952;2023-08-06T09:06:38;97837.44;;;26.42;42.51
18988;BME280;5494;51.796;10.952;2023-08-06T09:09:12;97844.38;;;26.62;41.84
18988;BME280;5494;51.796;10.952;2023-08-06T09:11:43;97832.69;;;26.11;42.24
18988;BME280;5494;51.796;10.952;2023-08-06T09:14:13;97840.88;;;26.95;40.75
18988;BME280;5494;51.796;10.952;2023-08-06T09:16:41;97831.88;;;27.40;39.88
18988;BME280;5494;51.796;10.952;2023-08-06T09:19:11;97833.91;;;27.45;40.35
18988;BME280;5494;51.796;10.952;2023-08-06T09:21:41;97822.97;;;27.09;40.32
18988;BME280;5494;51.796;10.952;2023-08-06T09:24:10;97828.22;;;27.28;40.17
18988;BME280;5494;51.796;10.952;2023-08-06T09:26:40;97825.50;;;27.41;39.27
18988;BME280;5494;51.796;10.952;2023-08-06T09:29:10;97822.22;;;28.09;38.83
18988;BME280;5494;51.796;10.952;2023-08-06T09:31:42;97819.00;;;28.32;38.40
18988;BME280;5494;51.796;10.952;2023-08-06T09:34:16;97815.63;;;28.61;38.17
18988;BME280;5494;51.796;10.952;2023-08-06T09:36:47;97812.47;;;28.28;39.19
18988;BME280;5494;51.796;10.952;2023-08-06T09:39:19;97813.94;;;28.67;38.66
18988;BME280;5494;51.796;10.952;2023-08-06T09:41:48;97807.59;;;29.04;38.11
18988;BME280;5494;51.796;10.952;2023-08-06T09:44:17;97814.25;;;28.77;38.04
18988;BME280;5494;51.796;10.952;2023-08-06T09:46:49;97814.66;;;27.36;40.14
18988;BME280;5494;51.796;10.952;2023-08-06T09:49:20;97820.28;;;27.15;40.53
18988;BME280;5494;51.796;10.952;2023-08-06T09:51:51;97822.47;;;28.32;38.68
18988;BME280;5494;51.796;10.952;2023-08-06T09:54:24;97819.03;;;28.75;37.44
18988;BME280;5494;51.796;10.952;2023-08-06T09:56:55;97810.94;;;28.81;37.10
18988;BME280;5494;51.796;10.952;2023-08-06T09:59:23;97813.53;;;28.63;37.45
18988;BME280;5494;51.796;10.952;2023-08-06T10:01:54;97811.72;;;27.00;40.10
18988;BME280;5494;51.796;10.952;2023-08-06T10:04:24;97809.28;;;26.79;40.76
18988;BME280;5494;51.796;10.952;2023-08-06T10:07:01;97810.50;;;25.58;40.64
18988;BME280;5494;51.796;10.952;2023-08-06T10:09:30;97809.09;;;25.88;40.10
18988;BME280;5494;51.796;10.952;2023-08-06T10:11:59;97795.78;;;25.68;40.47
18988;BME280;5494;51.796;10.952;2023-08-06T10:14:32;97797.81;;;25.73;41.71
18988;BME280;5494;51.796;10.952;2023-08-06T10:17:03;97801.78;;;25.29;41.94
18988;BME280;5494;51.796;10.952;2023-08-06T10:19:32;97798.44;;;25.07;42.76
18988;BME280;5494;51.796;10.952;2023-08-06T10:22:11;97789.09;;;25.38;41.92
18988;BME280;5494;51.796;10.952;2023-08-06T10:24:51;97795.06;;;25.46;41.47
18988;BME280;5494;51.796;10.952;2023-08-06T10:27:21;97790.03;;;25.65;41.29
18988;BME280;5494;51.796;10.952;2023-08-06T10:29:50;97794.63;;;25.23;41.19
18988;BME280;5494;51.796;10.952;2023-08-06T10:32:19;97794.44;;;25.38;41.44
18988;BME280;5494;51.796;10.952;2023-08-06T10:34:59;97790.88;;;25.72;40.68
18988;BME280;5494;51.796;10.952;2023-08-06T10:37:37;97793.69;;;25.57;40.59
18988;BME280;5494;51.796;10.952;2023-08-06T10:40:07;97789.16;;;25.51;40.83
18988;BME280;5494;51.796;10.952;2023-08-06T10:42:35;97781.44;;;25.76;38.78
18988;BME280;5494;51.796;10.952;2023-08-06T10:45:18;97783.09;;;26.10;38.90
18988;BME280;5494;51.796;10.952;2023-08-06T10:47:47;97781.69;;;26.27;38.89
18988;BME280;5494;51.796;10.952;2023-08-06T10:50:17;97776.75;;;26.31;38.58
18988;BME280;5494;51.796;10.952;2023-08-06T10:52:45;97784.94;;;26.49;38.35
18988;BME280;5494;51.796;10.952;2023-08-06T10:55:14;97783.09;;;26.10;38.05
18988;BME280;5494;51.796;10.952;2023-08-06T10:57:49;97778.59;;;26.23;38.89
18988;BME280;5494;51.796;10.952;2023-08-06T11:00:17;97771.63;;;25.76;39.27
18988;BME280;5494;51.796;10.952;2023-08-06T11:02:48;97768.31;;;25.61;40.54
18988;BME280;5494;51.796;10.952;2023-08-06T11:05:17;97764.81;;;24.93;41.21
18988;BME280;5494;51.796;10.952;2023-08-06T11:07:45;97757.75;;;25.14;42.16
18988;BME280;5494;51.796;10.952;2023-08-06T11:10:17;97767.63;;;25.39;42.08
18988;BME280;5494;51.796;10.952;2023-08-06T11:12:45;97764.09;;;24.78;44.31
18988;BME280;5494;51.796;10.952;2023-08-06T11:15:13;97759.78;;;24.70;45.94
18988;BME280;5494;51.796;10.952;2023-08-06T11:17:42;97748.91;;;25.06;45.33
18988;BME280;5494;51.796;10.952;2023-08-06T11:20:11;97752.56;;;24.99;45.86
18988;BME280;5494;51.796;10.952;2023-08-06T11:22:43;97757.78;;;24.79;45.43
18988;BME280;5494;51.796;10.952;2023-08-06T11:25:11;97750.00;;;24.78;45.51
18988;BME280;5494;51.796;10.952;2023-08-06T11:27:39;97748.91;;;25.06;44.69
18988;BME280;5494;51.796;10.952;2023-08-06T11:30:10;97750.22;;;25.24;44.74
18988;BME280;5494;51.796;10.952;2023-08-06T11:32:45;97745.66;;;25.18;45.19
18988;BME280;5494;51.796;10.952;2023-08-06T11:35:16;97746.50;;;25.25;44.02
18988;BME280;5494;51.796;10.952;2023-08-06T11:37:45;97733.03;;;25.46;43.66
18988;BME280;5494;51.796;10.952;2023-08-06T11:40:15;97737.16;;;24.88;45.02
18988;BME280;5494;51.796;10.952;2023-08-06T11:42:44;97742.63;;;25.21;44.53
18988;BME280;5494;51.796;10.952;2023-08-06T11:45:14;97739.56;;;25.24;45.41
18988;BME280;5494;51.796;10.952;2023-08-06T11:47:49;97736.69;;;25.32;44.26
18988;BME280;5494;51.796;10.952;2023-08-06T11:50:23;97735.78;;;24.98;43.73
18988;BME280;5494;51.796;10.952;2023-08-06T11:52:57;97732.03;;;24.86;44.43
18988;BME280;5494;51.796;10.952;2023-08-06T11:55:28;97726.28;;;24.83;43.27
18988;BME280;5494;51.796;10.952;2023-08-06T11:57:57;97712.22;;;24.89;41.45
18988;BME280;5494;51.796;10.952;2023-08-06T12:00:26;97708.72;;;24.88;42.04
18988;BME280;5494;51.796;10.952;2023-08-06T12:02:54;97717.94;;;24.45;41.84
18988;BME280;5494;51.796;10.952;2023-08-06T12:05:30;97720.50;;;24.04;43.60
18988;BME280;5494;51.796;10.952;2023-08-06T12:08:02;97716.03;;;23.55;43.09
18988;BME280;5494;51.796;10.952;2023-08-06T12:10:31;97714.69;;;23.23;46.57
18988;BME280;5494;51.796;10.952;2023-08-06T12:13:00;97716.53;;;23.65;46.46
18988;BME280;5494;51.796;10.952;2023-08-06T12:15:29;97704.97;;;23.30;44.70
18988;BME280;5494;51.796;10.952;2023-08-06T12:17:59;97708.69;;;23.36;45.28
18988;BME280;5494;51.796;10.952;2023-08-06T12:20:29;97706.47;;;23.82;45.92
18988;BME280;5494;51.796;10.952;2023-08-06T12:22:57;97706.84;;;23.51;44.68
18988;BME280;5494;51.796;10.952;2023-08-06T12:25:25;97699.13;;;22.99;47.27
18988;BME280;5494;51.796;10.952;2023-08-06T12:27:53;97692.03;;;22.85;46.36
18988;BME280;5494;51.796;10.952;2023-08-06T12:30:21;97691.03;;;22.86;49.36
18988;BME280;5494;51.796;10.952;2023-08-06T12:32:50;97678.56;;;23.43;46.70
18988;BME280;5494;51.796;10.952;2023-08-06T12:35:18;97683.13;;;23.28;46.40
18988;BME280;5494;51.796;10.952;2023-08-06T12:37:49;97675.47;;;23.61;45.57
18988;BME280;5494;51.796;10.952;2023-08-06T12:40:26;97670.16;;;23.89;44.31
18988;BME280;5494;51.796;10.952;2023-08-06T12:43:02;97672.56;;;23.35;47.44
18988;BME280;5494;51.796;10.952;2023-08-06T12:45:31;97690.81;;;23.23;49.55
18988;BME280;5494;51.796;10.952;2023-08-06T12:47:59;97686.00;;;23.12;49.03
18988;BME280;5494;51.796;10.952;2023-08-06T12:50:27;97685.25;;;23.18;48.52
18988;BME280;5494;51.796;10.952;2023-08-06T12:52:56;97687.06;;;23.39;47.94
18988;BME280;5494;51.796;10.952;2023-08-06T12:55:25;97689.66;;;23.32;46.82
18988;BME280;5494;51.796;10.952;2023-08-06T12:57:53;97687.78;;;23.26;47.48
18988;BME280;5494;51.796;10.952;2023-08-06T13:00:25;97697.38;;;23.06;49.09
18988;BME280;5494;51.796;10.952;2023-08-06T13:02:53;97687.84;;;23.33;49.90
18988;BME280;5494;51.796;10.952;2023-08-06T13:05:21;97689.91;;;22.95;50.08
18988;BME280;5494;51.796;10.952;2023-08-06T13:07:50;97689.13;;;22.65;52.21